Cleveland, Ohio
Current Conditions -  °F | °C
As of 11:53 PM on Sunday 19 Oct 2014 (Local Time) from KBKL Reporting Station
Clear Clear  
Wind Chill: 44°   Ceiling: Unl
Heat Index: 48°   Visibility: 10mi
Dew Point: 35°   Wind: 8mph
Humidity: 61%   Direction: 170°S
Pressure: 30.02"   Gusts: NA
Location:  41.5°N, 81.69°W
Report Text: KBKL 200353Z AUTO 17007KT 10SM CLR 09/02 A3002 RMK AO2 SLP167 T00890017
Loading
Personal Weather Stations






























Interactive Weather Map
Tropical Storm Tracking
New forecast layout! Learn more

10-Day Weather Forecast

Advertisements
Track Severe Weather on mobile